createdAt,value
2022-12-03T00:00:39.632Z,53.65
2022-12-03T00:03:06.594Z,40.90
2022-12-03T00:05:33.648Z,42.58
2022-12-03T00:08:00.639Z,49.72
2022-12-03T00:10:27.569Z,47.80
2022-12-03T00:12:54.536Z,55.03
2022-12-03T00:15:21.549Z,50.38
2022-12-03T00:17:49.860Z,54.38
2022-12-03T00:20:20.777Z,46.80
2022-12-03T00:22:47.748Z,48.22
2022-12-03T00:25:14.921Z,46.08
2022-12-03T00:27:41.892Z,45.70
2022-12-03T00:30:11.197Z,59.63
2022-12-03T00:32:38.198Z,51.83
2022-12-03T00:35:07.308Z,44.67
2022-12-03T00:37:35.324Z,45.13
2022-12-03T00:40:03.095Z,55.78
2022-12-03T00:42:30.035Z,41.58
2022-12-03T00:44:57.052Z,51.33
2022-12-03T00:47:24.058Z,47.55
2022-12-03T00:49:51.727Z,46.33
2022-12-03T00:52:20.093Z,47.72
2022-12-03T00:54:49.085Z,48.95
2022-12-03T00:57:16.456Z,50.75
2022-12-03T00:59:43.373Z,55.05
2022-12-03T01:02:10.594Z,58.83
2022-12-03T01:04:37.747Z,59.22
2022-12-03T01:07:04.930Z,53.33
2022-12-03T01:09:33.328Z,48.17
2022-12-03T01:12:00.257Z,58.03
2022-12-03T01:14:27.235Z,57.70
2022-12-03T01:16:54.168Z,52.50
2022-12-03T01:19:21.173Z,58.97
2022-12-03T01:21:50.670Z,56.60
2022-12-03T01:24:19.109Z,49.92
2022-12-03T01:26:47.464Z,48.92
2022-12-03T01:29:14.901Z,53.63
2022-12-03T01:32:00.115Z,45.95
2022-12-03T01:34:27.081Z,47.03
2022-12-03T01:36:53.987Z,61.83
2022-12-03T01:39:21.057Z,51.50
2022-12-03T01:41:51.169Z,51.38
2022-12-03T01:44:22.485Z,52.35
2022-12-03T01:46:50.927Z,52.42
2022-12-03T01:49:20.756Z,57.58
2022-12-03T01:51:49.803Z,50.15
2022-12-03T01:54:18.657Z,44.50
2022-12-03T01:56:46.843Z,51.90
2022-12-03T01:59:17.174Z,53.35
2022-12-03T02:01:44.559Z,50.28
2022-12-03T02:04:16.659Z,49.50
2022-12-03T02:06:44.568Z,54.50
2022-12-03T02:09:12.672Z,50.20
2022-12-03T02:11:42.251Z,52.97
2022-12-03T02:14:13.988Z,56.83
2022-12-03T02:16:43.106Z,59.10
2022-12-03T02:19:20.112Z,43.03
2022-12-03T02:21:56.780Z,57.00
2022-12-03T02:24:29.381Z,50.08
2022-12-03T02:26:57.789Z,54.25
2022-12-03T02:29:25.233Z,47.33
2022-12-03T02:31:52.281Z,52.00
2022-12-03T02:34:37.393Z,57.17
2022-12-03T02:37:06.644Z,59.75
2022-12-03T02:39:35.263Z,50.10
2022-12-03T02:42:23.173Z,57.83
2022-12-03T02:44:50.344Z,53.38
2022-12-03T02:47:17.801Z,60.03
2022-12-03T02:49:45.199Z,48.50
2022-12-03T02:52:12.273Z,49.67
2022-12-03T02:54:39.309Z,49.22
2022-12-03T02:57:07.845Z,52.20
2022-12-03T02:59:34.985Z,54.83
2022-12-03T03:02:02.500Z,59.30
2022-12-03T03:04:30.009Z,55.13
2022-12-03T03:06:57.084Z,49.80
2022-12-03T03:09:24.342Z,47.55
2022-12-03T03:11:51.300Z,53.55
2022-12-03T03:14:19.637Z,52.08
2022-12-03T03:16:55.696Z,50.80
2022-12-03T03:19:24.458Z,52.75
2022-12-03T03:21:52.026Z,49.97
2022-12-03T03:24:19.450Z,52.88
2022-12-03T03:26:47.574Z,51.28
2022-12-03T03:29:14.725Z,48.28
2022-12-03T03:31:45.283Z,56.47
2022-12-03T03:34:12.828Z,48.78
2022-12-03T03:36:40.541Z,56.58
2022-12-03T03:39:07.700Z,56.25
2022-12-03T03:41:35.718Z,50.28
2022-12-03T03:44:05.106Z,52.28
2022-12-03T03:46:33.549Z,52.53
2022-12-03T03:49:02.719Z,46.70
2022-12-03T03:51:30.156Z,57.55
2022-12-03T03:53:57.375Z,51.97
2022-12-03T03:56:24.629Z,51.90
2022-12-03T03:58:51.664Z,55.25
2022-12-03T04:01:19.264Z,49.65
2022-12-03T04:03:46.431Z,53.45
2022-12-03T04:06:14.980Z,49.08
2022-12-03T04:08:41.976Z,53.47
2022-12-03T04:11:28.259Z,56.83
2022-12-03T04:13:55.185Z,68.07
2022-12-03T04:16:22.240Z,70.40
2022-12-03T04:18:49.336Z,68.07
2022-12-03T04:21:38.026Z,65.50
2022-12-03T04:24:06.912Z,51.38
2022-12-03T04:26:52.742Z,57.33
2022-12-03T04:29:20.545Z,68.65
2022-12-03T04:32:06.272Z,56.58
2022-12-03T04:37:20.914Z,50.08
2022-12-03T04:39:47.908Z,42.38
2022-12-03T04:42:14.865Z,43.50
2022-12-03T04:44:41.863Z,49.75
2022-12-03T04:47:11.458Z,50.92
2022-12-03T04:49:40.686Z,48.97
2022-12-03T04:52:08.716Z,64.68
2022-12-03T04:54:37.610Z,79.18
2022-12-03T04:57:05.381Z,53.35
2022-12-03T04:59:33.023Z,48.80
2022-12-03T05:02:00.103Z,49.47
2022-12-03T05:04:27.142Z,52.22
2022-12-03T05:07:12.011Z,50.85
2022-12-03T05:09:40.405Z,46.47
2022-12-03T05:12:07.583Z,43.60
2022-12-03T05:14:35.641Z,44.75
2022-12-03T05:17:02.649Z,49.08
2022-12-03T05:19:48.304Z,41.13
2022-12-03T05:22:15.294Z,53.55
2022-12-03T05:24:43.680Z,47.70
2022-12-03T05:27:10.721Z,47.33
2022-12-03T05:29:37.676Z,42.13
2022-12-03T05:32:05.096Z,39.55
2022-12-03T05:34:32.067Z,39.75
2022-12-03T05:36:59.061Z,47.35
2022-12-03T05:39:26.189Z,40.40
2022-12-03T05:42:13.024Z,59.25
2022-12-03T05:44:40.180Z,52.92
2022-12-03T05:47:07.162Z,49.33
2022-12-03T05:49:34.185Z,48.17
2022-12-03T05:52:01.139Z,46.30
2022-12-03T05:54:28.601Z,46.83
2022-12-03T05:56:57.002Z,47.60
2022-12-03T05:59:23.955Z,46.40
2022-12-03T06:01:50.972Z,48.15
2022-12-03T06:04:17.952Z,77.30
2022-12-03T06:06:45.184Z,49.67
2022-12-03T06:09:12.673Z,48.25
2022-12-03T06:11:40.641Z,44.70
2022-12-03T06:14:09.382Z,44.88
2022-12-03T06:16:36.466Z,43.30
2022-12-03T06:19:03.495Z,46.05
2022-12-03T06:21:30.457Z,47.00
2022-12-03T06:23:57.412Z,44.95
2022-12-03T06:26:24.370Z,43.40
2022-12-03T06:28:51.267Z,50.15
2022-12-03T06:31:19.677Z,48.63
2022-12-03T06:33:46.654Z,48.05
2022-12-03T06:36:13.577Z,52.65
2022-12-03T06:38:41.773Z,47.20
2022-12-03T06:41:08.711Z,51.33
2022-12-03T06:43:35.733Z,46.45
2022-12-03T06:46:02.704Z,45.47
2022-12-03T06:48:31.110Z,44.65
2022-12-03T06:50:58.161Z,48.38
2022-12-03T06:53:25.099Z,47.85
2022-12-03T06:55:52.013Z,57.67
2022-12-03T06:58:18.931Z,50.50
2022-12-03T07:00:46.001Z,44.85
2022-12-03T07:03:13.101Z,48.70
2022-12-03T07:05:41.489Z,50.97
2022-12-03T07:08:08.508Z,45.47
2022-12-03T07:10:35.460Z,48.60
2022-12-03T07:13:02.456Z,53.40
2022-12-03T07:15:29.398Z,45.45
2022-12-03T07:17:56.313Z,49.35
2022-12-03T07:20:23.228Z,48.80
2022-12-03T07:22:51.600Z,47.53
2022-12-03T07:25:23.162Z,54.97
2022-12-03T07:27:50.925Z,79.78
2022-12-03T07:30:18.265Z,126.75
2022-12-03T07:32:45.289Z,69.13
2022-12-03T07:35:12.292Z,48.75
2022-12-03T07:37:39.287Z,63.50
2022-12-03T07:40:09.873Z,174.20
2022-12-03T07:42:36.944Z,59.45
2022-12-03T07:45:04.578Z,51.95
2022-12-03T07:47:31.662Z,133.98
2022-12-03T07:49:58.609Z,60.22
2022-12-03T07:52:25.568Z,63.40
2022-12-03T07:54:52.714Z,41.78
2022-12-03T07:57:21.237Z,50.20
2022-12-03T07:59:48.211Z,48.30
2022-12-03T08:02:20.968Z,48.95
2022-12-03T08:04:48.733Z,46.45
2022-12-03T08:07:15.694Z,37.03
2022-12-03T08:09:43.186Z,41.13
2022-12-03T08:12:17.275Z,48.83
2022-12-03T08:14:45.732Z,44.63
2022-12-03T08:17:13.238Z,37.70
2022-12-03T08:19:43.327Z,44.20
2022-12-03T08:22:12.945Z,52.47
2022-12-03T08:24:40.024Z,43.33
2022-12-03T08:27:16.952Z,38.67
2022-12-03T08:29:45.661Z,41.75
2022-12-03T08:32:13.027Z,43.95
2022-12-03T08:34:42.228Z,42.95
2022-12-03T08:37:15.922Z,44.50
2022-12-03T08:39:45.737Z,47.67
2022-12-03T08:42:34.883Z,41.17
2022-12-03T08:45:41.391Z,48.30
2022-12-03T08:50:47.177Z,44.55
2022-12-03T08:53:37.610Z,47.45
2022-12-03T08:56:13.726Z,46.42
2022-12-03T08:58:42.254Z,39.70
2022-12-03T09:01:29.813Z,47.03
2022-12-03T09:04:02.349Z,41.25
2022-12-03T09:06:29.428Z,46.00
2022-12-03T09:08:56.346Z,44.95
2022-12-03T09:11:23.309Z,43.17
2022-12-03T09:13:50.280Z,38.28
2022-12-03T09:16:17.397Z,39.92
2022-12-03T09:18:45.788Z,40.85
2022-12-03T09:21:12.751Z,45.45
2022-12-03T09:23:39.718Z,42.25
2022-12-03T09:26:06.698Z,38.00
2022-12-03T09:28:33.631Z,43.03
2022-12-03T09:31:00.591Z,38.53
2022-12-03T09:33:27.747Z,39.22
2022-12-03T09:35:56.044Z,44.83
2022-12-03T09:38:24.938Z,64.75
2022-12-03T09:40:52.080Z,32.92
2022-12-03T09:43:19.880Z,41.35
2022-12-03T09:45:47.710Z,43.88
2022-12-03T09:48:16.493Z,31.75
2022-12-03T09:50:43.782Z,32.97
2022-12-03T09:53:20.315Z,29.83
2022-12-03T09:55:48.016Z,32.80
2022-12-03T09:58:16.269Z,32.42
2022-12-03T10:00:46.672Z,34.90
2022-12-03T10:03:15.769Z,26.30
2022-12-03T10:05:47.929Z,32.95
2022-12-03T10:08:21.365Z,28.10
2022-12-03T10:10:50.657Z,29.67
2022-12-03T10:13:25.782Z,29.98
2022-12-03T10:15:54.870Z,34.72
2022-12-03T10:18:24.199Z,32.70
2022-12-03T10:20:52.264Z,32.20
2022-12-03T10:23:22.911Z,34.60
2022-12-03T10:25:52.507Z,29.30
2022-12-03T10:28:31.937Z,42.15
2022-12-03T10:31:00.829Z,53.65
2022-12-03T10:33:33.129Z,34.95
2022-12-03T10:36:23.878Z,28.95
2022-12-03T10:42:14.897Z,29.83
2022-12-03T10:44:41.949Z,31.33
2022-12-03T10:47:11.692Z,35.55
2022-12-03T10:49:39.485Z,36.95
2022-12-03T10:52:21.214Z,37.50
2022-12-03T10:54:51.446Z,31.33
2022-12-03T10:57:20.216Z,33.83
2022-12-03T10:59:47.254Z,29.35
2022-12-03T11:02:20.043Z,30.38
2022-12-03T11:04:47.276Z,32.13
2022-12-03T11:07:16.767Z,50.95
2022-12-03T11:09:45.412Z,83.45
2022-12-03T11:12:18.916Z,33.40
2022-12-03T11:15:17.498Z,32.83
2022-12-03T11:17:47.250Z,30.17
2022-12-03T11:20:52.317Z,28.77
2022-12-03T11:24:02.563Z,28.42
2022-12-03T11:27:15.112Z,28.85
2022-12-03T11:29:53.902Z,31.45
2022-12-03T11:33:06.155Z,31.25
2022-12-03T11:36:05.961Z,37.13
2022-12-03T11:38:53.859Z,33.63
2022-12-03T11:41:24.054Z,34.47
2022-12-03T11:43:58.981Z,32.25
2022-12-03T11:46:29.492Z,36.42
2022-12-03T11:48:58.737Z,27.25
2022-12-03T11:51:27.478Z,28.23
2022-12-03T11:53:58.109Z,30.73
2022-12-03T11:56:27.702Z,38.17
2022-12-03T11:58:59.740Z,32.67
2022-12-03T12:01:38.311Z,34.30
2022-12-03T12:04:06.913Z,32.58
2022-12-03T12:06:42.235Z,31.45
2022-12-03T12:09:11.026Z,35.70
2022-12-03T12:11:41.446Z,33.20
2022-12-03T12:14:09.846Z,35.22
2022-12-03T12:16:39.790Z,31.85
2022-12-03T12:19:32.787Z,35.88
2022-12-03T12:22:19.337Z,33.90
2022-12-03T12:24:51.628Z,38.20
2022-12-03T12:27:21.777Z,33.53
2022-12-03T12:29:54.506Z,38.00
2022-12-03T12:32:25.184Z,43.45
2022-12-03T12:34:57.057Z,44.35
2022-12-03T12:37:31.597Z,43.63
2022-12-03T12:40:02.008Z,29.73
2022-12-03T12:42:31.927Z,36.13
2022-12-03T12:45:05.281Z,52.97
2022-12-03T12:47:34.060Z,45.22
2022-12-03T12:50:01.898Z,39.72
2022-12-03T12:52:28.958Z,42.20
2022-12-03T12:54:59.041Z,61.22
2022-12-03T12:57:30.675Z,53.40
2022-12-03T12:59:57.859Z,53.85
2022-12-03T13:02:44.462Z,35.65
2022-12-03T13:05:13.125Z,40.10
2022-12-03T13:07:42.138Z,43.28
2022-12-03T13:10:37.272Z,35.40
2022-12-03T13:13:19.977Z,33.38
2022-12-03T13:15:59.547Z,45.08
2022-12-03T13:18:31.253Z,38.90
2022-12-03T13:20:58.428Z,37.13
2022-12-03T13:23:31.396Z,42.55
2022-12-03T13:26:17.303Z,36.38
2022-12-03T13:28:55.761Z,36.33
2022-12-03T13:31:27.194Z,45.85
2022-12-03T13:33:59.663Z,39.42
2022-12-03T13:36:36.809Z,38.85
2022-12-03T13:39:13.220Z,44.08
2022-12-03T13:41:59.998Z,37.05
2022-12-03T13:44:30.270Z,39.03
2022-12-03T13:46:57.247Z,36.70
2022-12-03T13:49:24.569Z,39.08
2022-12-03T13:51:51.698Z,35.40
2022-12-03T13:54:23.848Z,46.78
2022-12-03T13:56:50.925Z,50.15
2022-12-03T13:59:22.958Z,35.40
2022-12-03T14:01:54.418Z,42.65
2022-12-03T14:04:21.425Z,39.33
2022-12-03T14:06:48.462Z,47.30
2022-12-03T14:09:15.463Z,46.25
2022-12-03T14:12:00.668Z,44.80
2022-12-03T14:14:27.645Z,44.03
2022-12-03T14:16:59.900Z,36.08
2022-12-03T14:19:27.393Z,41.28
2022-12-03T14:21:54.407Z,38.75
2022-12-03T14:24:21.390Z,43.42
2022-12-03T14:26:48.485Z,38.38
2022-12-03T14:29:15.486Z,45.50
2022-12-03T14:31:42.527Z,46.95
2022-12-03T14:34:10.994Z,35.20
2022-12-03T14:36:37.903Z,32.30
2022-12-03T14:39:04.836Z,28.45
2022-12-03T14:41:50.379Z,30.90
2022-12-03T14:44:17.582Z,33.13
2022-12-03T14:46:44.547Z,29.75
2022-12-03T14:49:12.942Z,33.75
2022-12-03T14:51:40.009Z,34.75
2022-12-03T14:54:06.939Z,40.25
2022-12-03T14:56:33.914Z,39.47
2022-12-03T14:59:00.894Z,38.03
2022-12-03T15:01:28.041Z,37.00
2022-12-03T15:03:55.079Z,36.85
2022-12-03T15:06:23.389Z,37.53
2022-12-03T15:08:50.327Z,33.67
2022-12-03T15:11:17.300Z,34.20
2022-12-03T15:13:44.375Z,34.63
2022-12-03T15:16:11.425Z,37.97
2022-12-03T15:18:38.452Z,34.88
2022-12-03T15:21:05.743Z,34.45
2022-12-03T15:23:35.175Z,36.33
2022-12-03T15:26:02.169Z,34.05
2022-12-03T15:28:29.197Z,36.03
2022-12-03T15:30:56.387Z,35.75
2022-12-03T15:33:23.453Z,35.08
2022-12-03T15:35:50.425Z,35.83
2022-12-03T15:38:17.861Z,31.35
2022-12-03T15:40:46.505Z,32.67
2022-12-03T15:43:13.489Z,32.25
2022-12-03T15:45:40.597Z,32.65
2022-12-03T15:48:07.690Z,39.63
2022-12-03T15:50:39.695Z,29.30
2022-12-03T15:53:07.209Z,32.85
2022-12-03T15:55:34.262Z,26.88
2022-12-03T15:58:02.736Z,32.33
2022-12-03T16:00:29.713Z,33.80
2022-12-03T16:02:56.729Z,30.30
2022-12-03T16:05:23.702Z,31.52
2022-12-03T16:07:50.788Z,35.45
2022-12-03T16:10:21.463Z,111.95
2022-12-03T16:12:49.225Z,117.75
2022-12-03T16:15:20.920Z,131.88
2022-12-03T16:17:51.301Z,111.18
2022-12-03T16:20:18.330Z,54.75
2022-12-03T16:22:45.383Z,34.15
2022-12-03T16:25:12.361Z,30.10
2022-12-03T16:27:39.418Z,28.30
2022-12-03T16:30:07.701Z,28.70
2022-12-03T16:32:36.105Z,32.50
2022-12-03T16:35:03.246Z,29.95
2022-12-03T16:37:30.414Z,29.38
2022-12-03T16:39:57.499Z,29.00
2022-12-03T16:42:24.791Z,32.58
2022-12-03T16:45:12.350Z,29.63
2022-12-03T16:47:40.825Z,31.42
2022-12-03T16:50:12.998Z,32.22
2022-12-03T16:52:46.624Z,37.28
2022-12-03T16:55:13.592Z,30.23
2022-12-03T16:57:40.671Z,31.25
2022-12-03T17:00:08.694Z,35.90
2022-12-03T17:02:35.883Z,38.08
2022-12-03T17:05:04.561Z,37.63
2022-12-03T17:07:31.736Z,36.80
2022-12-03T17:09:58.732Z,30.77
2022-12-03T17:12:37.485Z,34.70
2022-12-03T17:15:13.437Z,39.40
2022-12-03T17:17:40.358Z,37.40
2022-12-03T17:20:09.373Z,43.08
2022-12-03T17:22:36.359Z,35.03
2022-12-03T17:25:03.483Z,38.72
2022-12-03T17:27:30.521Z,41.35
2022-12-03T17:29:57.477Z,36.05
2022-12-03T17:32:24.432Z,39.42
2022-12-03T17:34:51.471Z,38.15
2022-12-03T17:37:19.851Z,32.13
2022-12-03T17:39:46.878Z,37.30
2022-12-03T17:42:14.059Z,43.17
2022-12-03T17:44:41.067Z,39.15
2022-12-03T17:47:08.388Z,50.05
2022-12-03T17:49:35.316Z,50.58
2022-12-03T17:52:02.290Z,45.40
2022-12-03T17:54:55.099Z,63.15
2022-12-03T17:57:17.928Z,105.53
2022-12-03T17:59:44.913Z,169.73
2022-12-03T18:02:12.495Z,137.02
2022-12-03T18:04:39.531Z,92.78
2022-12-03T18:07:06.499Z,175.90
2022-12-03T18:09:34.952Z,210.18
2022-12-03T18:12:02.344Z,99.57
2022-12-03T18:14:29.561Z,61.92
2022-12-03T18:16:56.737Z,67.78
2022-12-03T18:19:25.979Z,47.03
2022-12-03T18:21:54.032Z,56.25
2022-12-03T18:24:22.015Z,47.42
2022-12-03T18:26:50.504Z,45.30
2022-12-03T18:29:17.505Z,47.53
2022-12-03T18:31:44.693Z,50.40
2022-12-03T18:34:12.057Z,45.97
2022-12-03T18:36:39.865Z,43.42
2022-12-03T18:39:09.333Z,37.83
2022-12-03T18:41:36.797Z,34.30
2022-12-03T18:44:09.533Z,34.90
2022-12-03T18:46:52.845Z,31.70
2022-12-03T18:49:20.445Z,33.20
2022-12-03T18:51:48.443Z,29.42
2022-12-03T18:54:16.104Z,30.50
2022-12-03T18:56:43.178Z,26.83
2022-12-03T18:59:12.297Z,30.05
2022-12-03T19:01:39.682Z,29.92
2022-12-03T19:04:06.706Z,27.92
2022-12-03T19:06:33.690Z,25.45
2022-12-03T19:09:00.846Z,27.40
2022-12-03T19:11:28.095Z,30.60
2022-12-03T19:13:57.204Z,29.45
2022-12-03T19:16:26.054Z,33.72
2022-12-03T19:18:53.975Z,32.03
2022-12-03T19:21:21.709Z,30.70
2022-12-03T19:24:21.994Z,32.83
2022-12-03T19:26:36.117Z,33.97
2022-12-03T19:29:03.562Z,35.10
2022-12-03T19:31:33.569Z,32.33
2022-12-03T19:34:00.708Z,41.05
2022-12-03T19:36:30.096Z,39.88
2022-12-03T19:38:59.112Z,41.50
2022-12-03T19:41:32.592Z,40.58
2022-12-03T19:43:59.998Z,37.13
2022-12-03T19:46:30.275Z,39.92
2022-12-03T19:48:58.752Z,38.70
2022-12-03T19:51:34.623Z,39.72
2022-12-03T19:54:02.309Z,39.22
2022-12-03T19:56:30.598Z,45.40
2022-12-03T19:58:57.934Z,50.92
2022-12-03T20:01:27.037Z,58.00
2022-12-03T20:03:55.892Z,75.85
2022-12-03T20:06:25.945Z,39.95
2022-12-03T20:08:56.642Z,64.60
2022-12-03T20:11:25.651Z,48.55
2022-12-03T20:13:54.538Z,43.33
2022-12-03T20:16:22.656Z,38.47
2022-12-03T20:18:51.796Z,34.20
2022-12-03T20:21:19.891Z,41.13
2022-12-03T20:23:48.250Z,37.22
2022-12-03T20:26:16.918Z,35.47
2022-12-03T20:28:44.381Z,35.17
2022-12-03T20:31:13.651Z,37.58
2022-12-03T20:33:42.595Z,35.47
2022-12-03T20:36:10.641Z,31.27
2022-12-03T20:38:37.893Z,32.55
2022-12-03T20:41:08.456Z,36.58
2022-12-03T20:43:35.981Z,34.03
2022-12-03T20:46:06.955Z,38.70
2022-12-03T20:48:34.017Z,38.40
2022-12-03T20:51:03.655Z,28.58
2022-12-03T20:53:30.625Z,30.58
2022-12-03T20:55:58.944Z,31.23
2022-12-03T20:58:30.432Z,35.65
2022-12-03T21:01:12.548Z,31.75
2022-12-03T21:03:43.355Z,33.22
2022-12-03T21:06:12.140Z,32.38
2022-12-03T21:08:41.889Z,36.63
2022-12-03T21:11:10.025Z,34.40
2022-12-03T21:13:41.299Z,33.70
2022-12-03T21:16:11.213Z,33.80
2022-12-03T21:18:38.800Z,36.83
2022-12-03T21:21:06.887Z,33.58
2022-12-03T21:23:34.901Z,29.38
2022-12-03T21:26:03.789Z,31.20
2022-12-03T21:28:31.194Z,30.92
2022-12-03T21:31:02.394Z,32.45
2022-12-03T21:33:30.645Z,34.72
2022-12-03T21:35:57.951Z,35.22
2022-12-03T21:38:25.762Z,32.78
2022-12-03T21:40:53.314Z,32.58
2022-12-03T21:43:20.370Z,33.13
2022-12-03T21:45:48.530Z,30.17
2022-12-03T21:48:17.714Z,28.52
2022-12-03T21:50:45.952Z,29.45
2022-12-03T21:53:13.100Z,30.73
2022-12-03T21:55:40.983Z,34.10
2022-12-03T21:58:08.324Z,32.00
2022-12-03T22:00:35.353Z,37.95
2022-12-03T22:03:02.383Z,33.85
2022-12-03T22:05:30.868Z,32.10
2022-12-03T22:07:57.880Z,32.63
2022-12-03T22:10:24.901Z,34.75
2022-12-03T22:12:51.944Z,34.22
2022-12-03T22:15:19.675Z,31.20
2022-12-03T22:17:47.493Z,35.35
2022-12-03T22:20:15.167Z,26.73
2022-12-03T22:22:43.525Z,31.10
2022-12-03T22:25:10.594Z,29.10
2022-12-03T22:27:37.616Z,26.73
2022-12-03T22:30:05.982Z,28.80
2022-12-03T22:32:33.421Z,31.23
2022-12-03T22:35:00.391Z,29.33
2022-12-03T22:37:27.353Z,27.70
2022-12-03T22:39:55.959Z,30.90
2022-12-03T22:42:23.066Z,31.40
2022-12-03T22:44:50.048Z,28.70
2022-12-03T22:47:17.081Z,28.02
2022-12-03T22:49:44.077Z,26.70
2022-12-03T22:52:10.990Z,27.80
2022-12-03T22:54:37.906Z,29.75
2022-12-03T22:57:06.232Z,27.08
2022-12-03T22:59:33.272Z,26.77
2022-12-03T23:02:00.224Z,25.70
2022-12-03T23:04:27.163Z,26.88
2022-12-03T23:06:54.150Z,28.33
2022-12-03T23:09:21.298Z,25.40
2022-12-03T23:11:48.249Z,27.85
2022-12-03T23:14:16.539Z,26.45
2022-12-03T23:16:43.805Z,31.60
2022-12-03T23:19:10.849Z,26.70
2022-12-03T23:21:37.809Z,27.48
2022-12-03T23:24:06.002Z,26.48
2022-12-03T23:26:36.200Z,27.17
2022-12-03T23:29:04.115Z,26.48
2022-12-03T23:31:33.751Z,24.60
2022-12-03T23:34:01.166Z,24.42
2022-12-03T23:36:31.751Z,24.35
2022-12-03T23:38:58.728Z,28.02
2022-12-03T23:41:26.060Z,26.83
2022-12-03T23:43:53.253Z,26.55
2022-12-03T23:46:22.296Z,37.72
2022-12-03T23:48:51.629Z,37.88
2022-12-03T23:51:21.665Z,32.00
2022-12-03T23:53:48.649Z,31.88
2022-12-03T23:56:17.986Z,23.23
2022-12-03T23:58:45.515Z,25.33
